Terminal Aerodrome Forecast
Issued by NWS

Home | Current Version | Previous Version | Text Only | Print | Product List | Glossary On
Versions: 1 2 3 4 5 6 7 8 9 10 11 12 13 14 15 16 17 18 19 20 21 22 23 24 25 26 27 28 29
000
FTUS41 KCAR 161100
TAFPQI
TAF
KPQI 161137Z 1612/1712 29019G27KT P6SM OVC007
     FM161300 29019G27KT P6SM BKN015
     FM161500 29019G27KT P6SM BKN025
     FM161600 29019G27KT P6SM BKN040
     FM162200 29010G20KT P6SM SKC
     FM170000 29006KT P6SM SKC
      AMD NOT SKED=

USA.gov is the U.S. government's official web portal to all federal, state and local government web resources and services.